createdAt,value
2017-12-27T00:00:19.564Z,86.68
2017-12-27T00:01:21.436Z,86.78
2017-12-27T00:02:23.315Z,86.87
2017-12-27T00:03:25.182Z,87.25
2017-12-27T00:04:26.999Z,87.16
2017-12-27T00:05:28.792Z,87.25
2017-12-27T00:06:30.657Z,86.97
2017-12-27T00:07:32.516Z,86.49
2017-12-27T00:08:34.391Z,86.59
2017-12-27T00:09:48.522Z,86.59
2017-12-27T00:10:50.393Z,86.49
2017-12-27T00:11:52.251Z,86.59
2017-12-27T00:12:54.133Z,86.30
2017-12-27T00:13:55.928Z,85.83
2017-12-27T00:14:57.726Z,85.74
2017-12-27T00:15:59.598Z,85.74
2017-12-27T00:17:01.453Z,85.64
2017-12-27T00:18:03.337Z,85.93
2017-12-27T00:19:17.463Z,85.36
2017-12-27T00:20:19.350Z,85.26
2017-12-27T00:21:21.237Z,85.45
2017-12-27T00:22:23.134Z,85.36
2017-12-27T00:23:24.957Z,85.55
2017-12-27T00:24:26.768Z,85.74
2017-12-27T00:25:28.635Z,85.36
2017-12-27T00:26:30.512Z,85.45
2017-12-27T00:27:32.410Z,85.64
2017-12-27T00:28:46.582Z,85.26
2017-12-27T00:29:48.445Z,85.26
2017-12-27T00:30:50.332Z,85.26
2017-12-27T00:31:52.217Z,85.07
2017-12-27T00:32:54.014Z,84.88
2017-12-27T00:33:55.844Z,84.88
2017-12-27T00:34:57.698Z,84.69
2017-12-27T00:35:59.564Z,84.88
2017-12-27T00:37:01.431Z,85.07
2017-12-27T00:38:15.583Z,85.17
2017-12-27T00:39:17.448Z,85.07
2017-12-27T00:40:19.304Z,84.88
2017-12-27T00:41:21.167Z,84.88
2017-12-27T00:42:22.984Z,84.98
2017-12-27T00:43:24.787Z,84.78
2017-12-27T00:44:26.672Z,85.26
2017-12-27T00:45:28.558Z,85.07
2017-12-27T00:46:30.413Z,84.98
2017-12-27T00:47:44.599Z,84.98
2017-12-27T00:48:46.481Z,84.98
2017-12-27T00:49:48.352Z,85.26
2017-12-27T00:50:50.231Z,84.88
2017-12-27T00:51:52.034Z,84.88
2017-12-27T00:52:53.851Z,84.41
2017-12-27T00:53:55.714Z,84.98
2017-12-27T00:54:57.599Z,84.98
2017-12-27T00:55:59.480Z,84.98
2017-12-27T00:57:13.613Z,85.17
2017-12-27T00:58:15.477Z,84.78
2017-12-27T00:59:17.336Z,84.69
2017-12-27T01:00:19.199Z,84.59
2017-12-27T01:01:20.998Z,84.69
2017-12-27T01:02:22.822Z,84.41
2017-12-27T01:03:24.702Z,84.69
2017-12-27T01:04:26.584Z,85.17
2017-12-27T01:05:28.450Z,85.17
2017-12-27T01:06:42.580Z,85.36
2017-12-27T01:07:44.444Z,85.26
2017-12-27T01:08:46.308Z,85.17
2017-12-27T01:09:48.190Z,84.69
2017-12-27T01:10:49.991Z,84.88
2017-12-27T01:11:51.809Z,84.41
2017-12-27T01:12:53.691Z,84.69
2017-12-27T01:13:55.554Z,84.50
2017-12-27T01:14:57.440Z,84.78
2017-12-27T01:16:11.592Z,84.69
2017-12-27T01:17:13.456Z,84.88
2017-12-27T01:18:15.319Z,85.17
2017-12-27T01:19:17.205Z,84.78
2017-12-27T01:20:19.023Z,85.55
2017-12-27T01:21:20.824Z,85.74
2017-12-27T01:22:22.705Z,85.74
2017-12-27T01:23:24.584Z,85.93
2017-12-27T01:24:26.451Z,85.64
2017-12-27T01:25:40.629Z,85.55
2017-12-27T01:26:42.484Z,85.83
2017-12-27T01:27:44.346Z,85.26
2017-12-27T01:28:46.210Z,85.45
2017-12-27T01:29:48.029Z,85.26
2017-12-27T01:30:49.849Z,85.74
2017-12-27T01:31:51.733Z,85.64
2017-12-27T01:32:53.596Z,86.11
2017-12-27T01:33:55.482Z,86.40
2017-12-27T01:35:09.682Z,86.68
2017-12-27T01:36:11.542Z,86.78
2017-12-27T01:37:13.427Z,86.78
2017-12-27T01:38:15.293Z,86.97
2017-12-27T01:39:17.119Z,86.40
2017-12-27T01:40:18.930Z,86.30
2017-12-27T01:41:20.794Z,86.59
2017-12-27T01:42:22.662Z,86.40
2017-12-27T01:43:24.548Z,86.59
2017-12-27T01:44:38.696Z,86.30
2017-12-27T01:45:40.557Z,86.45
2017-12-27T01:46:42.425Z,86.68
2017-12-27T01:47:44.282Z,86.93
2017-12-27T01:48:46.103Z,86.55
2017-12-27T01:49:47.918Z,86.64
2017-12-27T01:50:49.783Z,86.55
2017-12-27T01:51:51.665Z,86.83
2017-12-27T01:52:53.526Z,86.64
2017-12-27T01:54:07.656Z,86.74
2017-12-27T01:55:09.523Z,86.97
2017-12-27T01:56:11.408Z,86.35
2017-12-27T01:57:13.285Z,86.26
2017-12-27T01:58:15.088Z,86.55
2017-12-27T01:59:16.903Z,86.26
2017-12-27T02:00:18.763Z,86.16
2017-12-27T02:01:20.625Z,86.16
2017-12-27T02:02:22.507Z,86.74
2017-12-27T02:03:36.641Z,86.45
2017-12-27T02:04:38.530Z,86.83
2017-12-27T02:05:40.412Z,86.64
2017-12-27T02:06:42.293Z,86.93
2017-12-27T02:07:44.099Z,87.12
2017-12-27T02:08:45.918Z,87.12
2017-12-27T02:09:47.795Z,86.64
2017-12-27T02:10:49.663Z,86.74
2017-12-27T02:11:51.542Z,86.93
2017-12-27T02:13:05.669Z,87.12
2017-12-27T02:14:07.538Z,87.30
2017-12-27T02:15:09.421Z,87.30
2017-12-27T02:16:11.312Z,87.02
2017-12-27T02:17:13.120Z,86.83
2017-12-27T02:18:14.936Z,86.45
2017-12-27T02:19:16.791Z,87.02
2017-12-27T02:20:18.652Z,87.40
2017-12-27T02:21:20.518Z,87.30
2017-12-27T02:22:34.665Z,87.40
2017-12-27T02:23:36.525Z,87.68
2017-12-27T02:24:38.385Z,88.06
2017-12-27T02:25:40.263Z,88.21
2017-12-27T02:26:42.064Z,88.35
2017-12-27T02:27:43.879Z,87.92
2017-12-27T02:28:45.742Z,88.06
2017-12-27T02:29:47.601Z,88.25
2017-12-27T02:30:49.481Z,88.16
2017-12-27T02:32:03.654Z,88.16
2017-12-27T02:33:05.509Z,87.97
2017-12-27T02:34:07.366Z,88.06
2017-12-27T02:35:09.226Z,88.16
2017-12-27T02:36:11.042Z,88.35
2017-12-27T02:37:12.855Z,87.68
2017-12-27T02:38:14.741Z,87.68
2017-12-27T02:39:16.617Z,87.77
2017-12-27T02:40:18.480Z,87.77
2017-12-27T02:41:32.628Z,87.77
2017-12-27T02:42:34.508Z,87.77
2017-12-27T02:43:36.365Z,87.77
2017-12-27T02:44:38.246Z,87.59
2017-12-27T02:45:40.044Z,87.59
2017-12-27T02:46:41.860Z,87.68
2017-12-27T02:47:43.743Z,87.30
2017-12-27T02:48:45.620Z,87.68
2017-12-27T02:49:47.486Z,87.77
2017-12-27T02:51:01.635Z,87.40
2017-12-27T02:52:03.510Z,87.68
2017-12-27T02:53:05.376Z,87.30
2017-12-27T02:54:07.232Z,87.68
2017-12-27T02:55:09.026Z,87.21
2017-12-27T02:56:10.821Z,87.12
2017-12-27T02:57:12.688Z,87.40
2017-12-27T02:58:14.570Z,86.93
2017-12-27T02:59:16.426Z,86.83
2017-12-27T03:00:30.558Z,86.93
2017-12-27T03:01:32.439Z,86.45
2017-12-27T03:02:34.322Z,86.55
2017-12-27T03:03:36.204Z,86.64
2017-12-27T03:04:38.025Z,86.55
2017-12-27T03:05:39.844Z,87.02
2017-12-27T03:06:41.725Z,87.49
2017-12-27T03:07:43.586Z,87.40
2017-12-27T03:08:45.446Z,87.59
2017-12-27T03:09:59.573Z,87.30
2017-12-27T03:11:01.430Z,87.30
2017-12-27T03:12:03.287Z,87.02
2017-12-27T03:13:05.204Z,86.93
2017-12-27T03:14:06.948Z,86.55
2017-12-27T03:15:08.764Z,86.55
2017-12-27T03:16:10.623Z,87.02
2017-12-27T03:17:12.488Z,87.21
2017-12-27T03:18:14.371Z,87.40
2017-12-27T03:19:28.519Z,87.30
2017-12-27T03:20:30.383Z,87.73
2017-12-27T03:21:32.264Z,87.35
2017-12-27T03:22:34.122Z,87.64
2017-12-27T03:23:35.939Z,87.64
2017-12-27T03:24:37.736Z,87.64
2017-12-27T03:25:39.621Z,88.30
2017-12-27T03:26:41.504Z,88.21
2017-12-27T03:27:43.382Z,88.30
2017-12-27T03:28:57.514Z,87.83
2017-12-27T03:29:59.372Z,87.92
2017-12-27T03:31:01.233Z,87.92
2017-12-27T03:32:03.089Z,88.21
2017-12-27T03:33:04.907Z,88.11
2017-12-27T03:34:06.719Z,88.21
2017-12-27T03:35:08.580Z,87.54
2017-12-27T03:36:10.466Z,87.35
2017-12-27T03:37:12.349Z,87.49
2017-12-27T03:38:26.496Z,87.30
2017-12-27T03:39:28.355Z,87.49
2017-12-27T03:40:30.218Z,87.12
2017-12-27T03:41:32.097Z,86.45
2017-12-27T03:42:33.920Z,86.74
2017-12-27T03:43:35.733Z,86.55
2017-12-27T03:44:37.598Z,86.64
2017-12-27T03:45:39.465Z,87.12
2017-12-27T03:46:41.327Z,87.30
2017-12-27T03:47:55.474Z,87.68
2017-12-27T03:48:57.351Z,87.64
2017-12-27T03:49:59.207Z,88.21
2017-12-27T03:51:01.067Z,88.30
2017-12-27T03:52:02.877Z,89.25
2017-12-27T03:53:04.671Z,89.82
2017-12-27T03:54:06.534Z,89.82
2017-12-27T03:55:08.413Z,89.72
2017-12-27T03:56:10.269Z,89.63
2017-12-27T03:57:24.397Z,88.96
2017-12-27T03:58:26.277Z,89.25
2017-12-27T03:59:28.161Z,89.53
2017-12-27T04:00:30.036Z,88.96
2017-12-27T04:01:31.831Z,88.68
2017-12-27T04:02:33.624Z,88.87
2017-12-27T04:03:35.508Z,88.68
2017-12-27T04:04:37.392Z,88.96
2017-12-27T04:05:39.264Z,88.78
2017-12-27T04:06:53.397Z,88.59
2017-12-27T04:07:55.275Z,88.49
2017-12-27T04:08:57.153Z,87.92
2017-12-27T04:09:59.011Z,88.30
2017-12-27T04:11:00.808Z,88.30
2017-12-27T04:12:02.627Z,88.21
2017-12-27T04:13:04.507Z,87.92
2017-12-27T04:14:06.368Z,88.21
2017-12-27T04:15:08.230Z,88.02
2017-12-27T04:16:22.381Z,88.35
2017-12-27T04:17:24.257Z,87.40
2017-12-27T04:18:26.141Z,87.87
2017-12-27T04:19:28.021Z,87.35
2017-12-27T04:20:29.843Z,87.59
2017-12-27T04:21:31.657Z,86.93
2017-12-27T04:22:33.542Z,87.02
2017-12-27T04:23:35.414Z,86.93
2017-12-27T04:24:37.278Z,86.83
2017-12-27T04:25:51.428Z,86.69
2017-12-27T04:26:53.303Z,86.60
2017-12-27T04:27:55.164Z,86.88
2017-12-27T04:28:57.046Z,87.35
2017-12-27T04:29:58.836Z,87.73
2017-12-27T04:31:00.630Z,87.83
2017-12-27T04:32:02.511Z,88.21
2017-12-27T04:33:04.391Z,87.83
2017-12-27T04:34:06.246Z,88.21
2017-12-27T04:35:20.390Z,87.68
2017-12-27T04:36:22.250Z,87.59
2017-12-27T04:37:24.109Z,87.59
2017-12-27T04:38:25.987Z,87.26
2017-12-27T04:39:27.806Z,87.35
2017-12-27T04:40:29.622Z,86.88
2017-12-27T04:41:31.508Z,86.83
2017-12-27T04:42:33.393Z,87.40
2017-12-27T04:43:35.274Z,87.07
2017-12-27T04:44:49.418Z,87.54
2017-12-27T04:45:51.275Z,87.73
2017-12-27T04:46:53.131Z,88.02
2017-12-27T04:47:54.990Z,87.92
2017-12-27T04:48:56.790Z,88.68
2017-12-27T04:49:58.600Z,89.15
2017-12-27T04:51:00.480Z,89.53
2017-12-27T04:52:02.337Z,89.44
2017-12-27T04:53:04.227Z,89.82
2017-12-27T04:54:18.364Z,89.63
2017-12-27T04:55:20.228Z,88.87
2017-12-27T04:56:22.108Z,88.59
2017-12-27T04:57:23.991Z,88.78
2017-12-27T04:58:25.808Z,88.02
2017-12-27T04:59:27.604Z,88.49
2017-12-27T05:00:29.484Z,87.92
2017-12-27T05:01:31.344Z,88.21
2017-12-27T05:02:33.224Z,87.83
2017-12-27T05:03:47.350Z,87.92
2017-12-27T05:04:49.206Z,87.92
2017-12-27T05:05:51.090Z,88.21
2017-12-27T05:06:52.967Z,88.21
2017-12-27T05:07:54.786Z,88.11
2017-12-27T05:08:56.599Z,87.92
2017-12-27T05:09:58.457Z,87.35
2017-12-27T05:11:00.315Z,87.73
2017-12-27T05:12:02.172Z,87.83
2017-12-27T05:13:16.295Z,87.45
2017-12-27T05:14:18.151Z,86.98
2017-12-27T05:15:20.013Z,86.98
2017-12-27T05:16:21.894Z,87.07
2017-12-27T05:17:23.710Z,86.74
2017-12-27T05:18:25.502Z,86.69
2017-12-27T05:19:27.359Z,86.93
2017-12-27T05:20:29.211Z,86.50
2017-12-27T05:21:31.073Z,86.69
2017-12-27T05:22:45.195Z,87.07
2017-12-27T05:23:47.053Z,87.26
2017-12-27T05:24:48.934Z,87.73
2017-12-27T05:25:50.800Z,87.45
2017-12-27T05:26:52.615Z,88.21
2017-12-27T05:27:54.410Z,88.11
2017-12-27T05:28:56.271Z,88.21
2017-12-27T05:29:58.151Z,87.54
2017-12-27T05:31:00.010Z,87.64
2017-12-27T05:32:14.158Z,87.16
2017-12-27T05:33:16.039Z,87.54
2017-12-27T05:34:17.913Z,87.64
2017-12-27T05:35:19.765Z,88.11
2017-12-27T05:36:21.565Z,87.64
2017-12-27T05:37:23.360Z,87.54
2017-12-27T05:38:25.240Z,88.11
2017-12-27T05:39:27.099Z,87.87
2017-12-27T05:40:28.981Z,87.97
2017-12-27T05:41:43.129Z,87.87
2017-12-27T05:42:44.990Z,87.49
2017-12-27T05:43:46.873Z,86.55
2017-12-27T05:44:48.757Z,86.35
2017-12-27T05:45:50.569Z,85.78
2017-12-27T05:46:52.361Z,85.50
2017-12-27T05:47:54.224Z,85.78
2017-12-27T05:48:56.084Z,85.69
2017-12-27T05:49:57.940Z,85.69
2017-12-27T05:51:12.067Z,85.41
2017-12-27T05:52:13.945Z,85.78
2017-12-27T05:53:15.826Z,85.03
2017-12-27T05:54:17.683Z,85.22
2017-12-27T05:55:19.478Z,85.03
2017-12-27T05:56:21.292Z,85.03
2017-12-27T05:57:23.173Z,85.22
2017-12-27T05:58:25.053Z,84.74
2017-12-27T05:59:26.934Z,84.84
2017-12-27T06:00:41.084Z,85.03
2017-12-27T06:01:42.939Z,84.94
2017-12-27T06:02:44.795Z,84.74
2017-12-27T06:03:46.656Z,84.17
2017-12-27T06:04:48.476Z,84.55
2017-12-27T06:05:50.293Z,83.89
2017-12-27T06:06:52.169Z,83.98
2017-12-27T06:07:54.032Z,83.80
2017-12-27T06:08:55.910Z,83.89
2017-12-27T06:10:10.043Z,84.36
2017-12-27T06:11:11.900Z,83.80
2017-12-27T06:12:13.780Z,83.89
2017-12-27T06:13:15.642Z,83.89
2017-12-27T06:14:17.460Z,83.80
2017-12-27T06:15:19.256Z,84.36
2017-12-27T06:16:21.138Z,83.80
2017-12-27T06:17:23.020Z,84.46
2017-12-27T06:18:24.898Z,83.70
2017-12-27T06:19:39.026Z,84.84
2017-12-27T06:20:40.904Z,85.08
2017-12-27T06:21:42.782Z,85.46
2017-12-27T06:22:44.640Z,86.03
2017-12-27T06:23:46.436Z,86.12
2017-12-27T06:24:48.245Z,86.60
2017-12-27T06:25:50.108Z,86.60
2017-12-27T06:26:51.971Z,86.60
2017-12-27T06:27:53.820Z,86.98
2017-12-27T06:29:07.995Z,87.45
2017-12-27T06:30:09.858Z,87.54
2017-12-27T06:31:11.737Z,88.21
2017-12-27T06:32:13.593Z,88.40
2017-12-27T06:33:15.391Z,88.49
2017-12-27T06:34:17.205Z,88.11
2017-12-27T06:35:19.062Z,87.83
2017-12-27T06:36:20.941Z,87.78
2017-12-27T06:37:22.802Z,87.92
2017-12-27T06:38:36.952Z,88.17
2017-12-27T06:39:38.808Z,88.54
2017-12-27T06:40:40.669Z,88.64
2017-12-27T06:41:42.551Z,88.26
2017-12-27T06:42:44.351Z,89.01
2017-12-27T06:43:46.167Z,88.82
2017-12-27T06:44:48.049Z,88.92
2017-12-27T06:45:49.909Z,88.92
2017-12-27T06:46:51.792Z,88.54
2017-12-27T06:48:05.965Z,88.54
2017-12-27T06:49:07.823Z,88.30
2017-12-27T06:50:09.698Z,88.11
2017-12-27T06:51:11.587Z,88.21
2017-12-27T06:52:13.398Z,87.73
2017-12-27T06:53:15.197Z,87.45
2017-12-27T06:54:17.052Z,86.88
2017-12-27T06:55:18.913Z,86.41
2017-12-27T06:56:20.775Z,86.69
2017-12-27T06:57:34.904Z,86.50
2017-12-27T06:58:36.758Z,86.22
2017-12-27T06:59:38.623Z,86.22
2017-12-27T07:00:40.486Z,86.31
2017-12-27T07:01:42.288Z,86.22
2017-12-27T07:02:44.102Z,86.22
2017-12-27T07:03:45.964Z,86.03
2017-12-27T07:04:47.825Z,86.03
2017-12-27T07:05:49.691Z,86.41
2017-12-27T07:07:03.894Z,86.31
2017-12-27T07:08:05.744Z,86.12
2017-12-27T07:09:07.602Z,86.03
2017-12-27T07:10:09.463Z,85.84
2017-12-27T07:11:11.260Z,86.03
2017-12-27T07:12:13.079Z,85.65
2017-12-27T07:13:14.942Z,85.46
2017-12-27T07:14:16.804Z,85.55
2017-12-27T07:15:18.689Z,85.84
2017-12-27T07:16:32.837Z,86.22
2017-12-27T07:17:34.720Z,86.31
2017-12-27T07:18:36.581Z,86.31
2017-12-27T07:19:38.458Z,86.22
2017-12-27T07:20:40.256Z,86.03
2017-12-27T07:21:42.056Z,86.03
2017-12-27T07:22:43.956Z,85.74
2017-12-27T07:23:45.823Z,85.84
2017-12-27T07:24:47.709Z,85.65
2017-12-27T07:26:01.836Z,85.46
2017-12-27T07:27:03.714Z,85.36
2017-12-27T07:28:05.580Z,85.46
2017-12-27T07:29:07.442Z,85.55
2017-12-27T07:30:09.266Z,85.17
2017-12-27T07:31:11.081Z,85.46
2017-12-27T07:32:12.951Z,84.99
2017-12-27T07:33:14.835Z,84.80
2017-12-27T07:34:16.722Z,84.42
2017-12-27T07:35:30.877Z,83.75
2017-12-27T07:36:32.759Z,83.94
2017-12-27T07:37:34.642Z,83.94
2017-12-27T07:38:36.527Z,83.85
2017-12-27T07:39:38.350Z,83.75
2017-12-27T07:40:40.142Z,83.56
2017-12-27T07:41:42.070Z,83.75
2017-12-27T07:42:43.988Z,83.75
2017-12-27T07:43:45.855Z,83.56
2017-12-27T07:45:00.006Z,83.37
2017-12-27T07:46:01.864Z,83.09
2017-12-27T07:47:03.730Z,83.89
2017-12-27T07:48:05.591Z,83.13
2017-12-27T07:49:07.414Z,82.75
2017-12-27T07:50:09.234Z,82.47
2017-12-27T07:51:11.118Z,82.18
2017-12-27T07:52:13.004Z,82.28
2017-12-27T07:53:14.863Z,82.47
2017-12-27T07:54:28.992Z,82.56
2017-12-27T07:55:30.858Z,82.85
2017-12-27T07:56:32.755Z,82.94
2017-12-27T07:57:34.640Z,83.04
2017-12-27T07:58:36.463Z,82.66
2017-12-27T07:59:38.280Z,83.23
2017-12-27T08:00:40.144Z,83.13
2017-12-27T08:01:42.032Z,83.32
2017-12-27T08:02:43.895Z,82.75
2017-12-27T08:03:58.260Z,82.89
2017-12-27T08:05:00.130Z,82.32
2017-12-27T08:06:02.070Z,82.42
2017-12-27T08:07:04.042Z,82.42
2017-12-27T08:08:06.014Z,82.42
2017-12-27T08:09:07.899Z,82.42
2017-12-27T08:10:10.092Z,82.23
2017-12-27T08:11:11.979Z,82.04
2017-12-27T08:12:13.904Z,82.51
2017-12-27T08:13:28.168Z,82.04
2017-12-27T08:14:30.147Z,81.99
2017-12-27T08:15:32.111Z,82.85
2017-12-27T08:16:33.977Z,83.42
2017-12-27T08:17:35.800Z,83.23
2017-12-27T08:18:37.621Z,83.32
2017-12-27T08:19:39.510Z,82.75
2017-12-27T08:20:41.392Z,82.75
2017-12-27T08:21:43.257Z,82.94
2017-12-27T08:22:57.411Z,82.75
2017-12-27T08:23:59.306Z,83.89
2017-12-27T08:25:01.182Z,84.17
2017-12-27T08:26:03.050Z,83.98
2017-12-27T08:27:04.873Z,83.42
2017-12-27T08:28:06.675Z,83.80
2017-12-27T08:29:08.563Z,83.61
2017-12-27T08:30:10.464Z,83.80
2017-12-27T08:31:12.339Z,83.61
2017-12-27T08:32:26.471Z,83.89
2017-12-27T08:33:28.356Z,83.61
2017-12-27T08:34:30.242Z,83.84
2017-12-27T08:35:32.105Z,83.08
2017-12-27T08:36:33.931Z,82.89
2017-12-27T08:37:35.756Z,83.08
2017-12-27T08:38:37.642Z,82.70
2017-12-27T08:39:39.507Z,82.98
2017-12-27T08:40:41.390Z,83.08
2017-12-27T08:41:55.521Z,82.32
2017-12-27T08:42:57.388Z,82.13
2017-12-27T08:43:59.270Z,81.66
2017-12-27T08:45:01.140Z,81.13
2017-12-27T08:46:02.965Z,80.94
2017-12-27T08:47:04.788Z,79.80
2017-12-27T08:48:06.691Z,79.23
2017-12-27T08:49:08.584Z,78.75
2017-12-27T08:50:10.500Z,78.75
2017-12-27T08:51:24.728Z,78.56
2017-12-27T08:52:26.780Z,78.66
2017-12-27T08:53:28.637Z,78.75
2017-12-27T08:54:30.571Z,78.95
2017-12-27T08:55:32.379Z,79.04
2017-12-27T08:56:34.212Z,79.61
2017-12-27T08:57:36.143Z,80.18
2017-12-27T08:58:38.043Z,80.27
2017-12-27T08:59:39.909Z,79.04
2017-12-27T09:00:54.092Z,79.23
2017-12-27T09:01:55.973Z,79.14
2017-12-27T09:02:57.867Z,79.14
2017-12-27T09:03:59.736Z,79.80
2017-12-27T09:05:01.564Z,80.08
2017-12-27T09:06:03.387Z,80.84
2017-12-27T09:07:05.250Z,81.18
2017-12-27T09:08:07.118Z,81.75
2017-12-27T09:09:09.023Z,81.56
2017-12-27T09:10:23.179Z,81.75
2017-12-27T09:11:25.062Z,82.04
2017-12-27T09:12:26.922Z,82.70
2017-12-27T09:13:28.796Z,82.89
2017-12-27T09:14:30.620Z,83.55
2017-12-27T09:15:32.397Z,83.84
2017-12-27T09:16:34.287Z,84.03
2017-12-27T09:17:36.168Z,84.59
2017-12-27T09:18:38.039Z,84.98
2017-12-27T09:19:52.196Z,84.59
2017-12-27T09:20:54.084Z,85.07
2017-12-27T09:21:55.964Z,84.98
2017-12-27T09:22:57.843Z,84.65
2017-12-27T09:23:59.771Z,85.17
2017-12-27T09:25:01.562Z,85.50
2017-12-27T09:26:03.450Z,85.64
2017-12-27T09:27:05.334Z,85.17
2017-12-27T09:28:07.191Z,85.45
2017-12-27T09:29:21.327Z,85.17
2017-12-27T09:30:23.191Z,85.55
2017-12-27T09:31:25.076Z,85.26
2017-12-27T09:32:26.984Z,85.17
2017-12-27T09:33:28.809Z,85.55
2017-12-27T09:34:30.639Z,85.07
2017-12-27T09:35:32.536Z,85.07
2017-12-27T09:36:34.400Z,84.88
2017-12-27T09:37:36.309Z,84.88
2017-12-27T09:38:50.438Z,84.50
2017-12-27T09:39:52.307Z,84.69
2017-12-27T09:40:54.216Z,84.50
2017-12-27T09:41:56.082Z,84.69
2017-12-27T09:42:57.901Z,83.88
2017-12-27T09:43:59.701Z,83.84
2017-12-27T09:45:01.602Z,83.59
2017-12-27T09:46:03.440Z,83.27
2017-12-27T09:47:05.350Z,83.94
2017-12-27T09:48:19.504Z,83.46
2017-12-27T09:49:21.392Z,83.84
2017-12-27T09:50:23.327Z,84.41
2017-12-27T09:51:25.144Z,84.41
2017-12-27T09:52:26.969Z,83.88
2017-12-27T09:53:28.801Z,83.94
2017-12-27T09:54:30.687Z,83.97
2017-12-27T09:55:32.568Z,83.69
2017-12-27T09:56:34.425Z,84.64
2017-12-27T09:57:48.683Z,84.45
2017-12-27T09:58:50.515Z,83.69
2017-12-27T09:59:52.422Z,83.12
2017-12-27T10:00:54.301Z,83.22
2017-12-27T10:01:56.119Z,83.22
2017-12-27T10:02:57.931Z,83.40
2017-12-27T10:03:59.813Z,83.59
2017-12-27T10:05:01.699Z,83.94
2017-12-27T10:06:03.569Z,84.12
2017-12-27T10:07:17.746Z,84.26
2017-12-27T10:08:19.632Z,84.55
2017-12-27T10:09:21.501Z,83.88
2017-12-27T10:10:23.390Z,84.69
2017-12-27T10:11:25.214Z,83.94
2017-12-27T10:12:27.038Z,84.41
2017-12-27T10:13:28.906Z,84.45
2017-12-27T10:14:30.788Z,84.64
2017-12-27T10:15:32.617Z,84.92
2017-12-27T10:16:46.820Z,83.97
2017-12-27T10:17:48.687Z,83.50
2017-12-27T10:18:50.549Z,83.69
2017-12-27T10:19:52.452Z,83.78
2017-12-27T10:20:54.239Z,83.50
2017-12-27T10:21:56.142Z,83.59
2017-12-27T10:22:57.950Z,83.40
2017-12-27T10:23:59.851Z,83.69
2017-12-27T10:25:01.721Z,83.78
2017-12-27T10:26:15.853Z,84.74
2017-12-27T10:27:17.740Z,84.45
2017-12-27T10:28:19.623Z,84.69
2017-12-27T10:29:21.487Z,84.88
2017-12-27T10:30:23.291Z,85.26
2017-12-27T10:31:25.114Z,85.64
2017-12-27T10:32:27.007Z,85.36
2017-12-27T10:33:28.875Z,86.21
2017-12-27T10:34:30.734Z,86.30
2017-12-27T10:35:44.869Z,86.21
2017-12-27T10:36:46.745Z,86.59
2017-12-27T10:37:48.616Z,86.02
2017-12-27T10:38:50.501Z,86.25
2017-12-27T10:39:52.627Z,85.87
2017-12-27T10:40:54.388Z,85.49
2017-12-27T10:41:56.280Z,85.11
2017-12-27T10:42:58.177Z,85.49
2017-12-27T10:44:00.031Z,85.11
2017-12-27T10:45:14.165Z,85.02
2017-12-27T10:46:16.060Z,84.64
2017-12-27T10:47:17.938Z,84.74
2017-12-27T10:48:19.833Z,84.64
2017-12-27T10:49:21.636Z,84.74
2017-12-27T10:50:23.456Z,84.55
2017-12-27T10:51:25.408Z,84.74
2017-12-27T10:52:27.311Z,84.36
2017-12-27T10:53:29.168Z,84.45
2017-12-27T10:54:43.366Z,84.55
2017-12-27T10:55:45.247Z,84.74
2017-12-27T10:56:47.111Z,84.74
2017-12-27T10:57:49.014Z,84.74
2017-12-27T10:58:50.817Z,85.02
2017-12-27T10:59:52.614Z,85.11
2017-12-27T11:00:54.517Z,85.11
2017-12-27T11:01:56.379Z,85.11
2017-12-27T11:02:58.235Z,84.74
2017-12-27T11:04:12.457Z,84.92
2017-12-27T11:05:14.292Z,84.07
2017-12-27T11:06:16.195Z,84.07
2017-12-27T11:07:18.051Z,84.55
2017-12-27T11:08:19.910Z,84.64
2017-12-27T11:09:21.731Z,84.45
2017-12-27T11:10:23.590Z,84.55
2017-12-27T11:11:25.452Z,84.45
2017-12-27T11:12:27.315Z,84.92
2017-12-27T11:13:41.447Z,85.59
2017-12-27T11:14:43.312Z,85.40
2017-12-27T11:15:45.174Z,85.59
2017-12-27T11:16:47.039Z,85.68
2017-12-27T11:17:48.838Z,85.16
2017-12-27T11:18:50.640Z,83.92
2017-12-27T11:19:52.528Z,83.59
2017-12-27T11:20:54.386Z,83.88
2017-12-27T11:21:56.248Z,84.17
2017-12-27T11:23:10.384Z,83.92
2017-12-27T11:24:12.246Z,83.92
2017-12-27T11:25:14.135Z,83.73
2017-12-27T11:26:16.002Z,83.64
2017-12-27T11:27:17.803Z,84.01
2017-12-27T11:28:19.598Z,84.21
2017-12-27T11:29:21.468Z,84.21
2017-12-27T11:30:23.355Z,83.92
2017-12-27T11:31:25.240Z,84.11
2017-12-27T11:32:39.370Z,83.45
2017-12-27T11:33:41.236Z,83.54
2017-12-27T11:34:43.099Z,83.36
2017-12-27T11:35:44.984Z,83.73
2017-12-27T11:36:46.792Z,83.69
2017-12-27T11:37:48.643Z,84.26
2017-12-27T11:38:50.529Z,84.64
2017-12-27T11:39:52.430Z,84.30
2017-12-27T11:40:54.305Z,84.59
2017-12-27T11:42:08.448Z,83.73
2017-12-27T11:43:10.346Z,84.11
2017-12-27T11:44:12.223Z,83.54
2017-12-27T11:45:14.084Z,83.16
2017-12-27T11:46:15.891Z,82.88
2017-12-27T11:47:17.710Z,83.92
2017-12-27T11:48:19.599Z,83.54
2017-12-27T11:49:21.485Z,83.92
2017-12-27T11:50:23.790Z,84.07
2017-12-27T11:51:37.892Z,85.02
2017-12-27T11:52:39.781Z,85.40
2017-12-27T11:53:41.661Z,85.30
2017-12-27T11:54:43.528Z,85.59
2017-12-27T11:55:45.348Z,85.59
2017-12-27T11:56:47.148Z,85.59
2017-12-27T11:57:49.010Z,84.92
2017-12-27T11:58:50.878Z,84.97
2017-12-27T11:59:52.762Z,85.16
2017-12-27T12:01:06.945Z,85.25
2017-12-27T12:02:08.830Z,84.59
2017-12-27T12:03:10.701Z,84.59
2017-12-27T12:04:12.580Z,84.68
2017-12-27T12:05:14.409Z,84.87
2017-12-27T12:06:16.229Z,84.49
2017-12-27T12:07:18.122Z,83.92
2017-12-27T12:08:19.986Z,83.45
2017-12-27T12:09:21.846Z,83.83
2017-12-27T12:10:35.979Z,83.26
2017-12-27T12:11:37.845Z,82.97
2017-12-27T12:12:39.708Z,83.45
2017-12-27T12:13:41.594Z,83.26
2017-12-27T12:14:43.397Z,83.16
2017-12-27T12:15:45.219Z,82.78
2017-12-27T12:16:47.108Z,83.16
2017-12-27T12:17:48.995Z,83.26
2017-12-27T12:18:50.886Z,83.64
2017-12-27T12:20:05.038Z,84.30
2017-12-27T12:21:06.902Z,84.49
2017-12-27T12:22:08.767Z,85.16
2017-12-27T12:23:10.657Z,85.53
2017-12-27T12:24:12.479Z,85.49
2017-12-27T12:25:14.277Z,85.82
2017-12-27T12:26:16.141Z,85.63
2017-12-27T12:27:18.006Z,84.97
2017-12-27T12:28:19.872Z,84.78
2017-12-27T12:29:34.027Z,84.59
2017-12-27T12:30:35.914Z,85.16
2017-12-27T12:31:37.773Z,84.49
2017-12-27T12:32:39.663Z,84.01
2017-12-27T12:33:41.485Z,83.83
2017-12-27T12:34:43.306Z,84.40
2017-12-27T12:35:45.176Z,84.21
2017-12-27T12:36:47.059Z,83.92
2017-12-27T12:37:48.931Z,84.11
2017-12-27T12:39:03.086Z,83.92
2017-12-27T12:40:04.951Z,83.73
2017-12-27T12:41:06.843Z,83.54
2017-12-27T12:42:08.738Z,83.39
2017-12-27T12:43:10.561Z,83.20
2017-12-27T12:44:12.399Z,82.73
2017-12-27T12:45:14.292Z,82.92
2017-12-27T12:46:16.169Z,82.92
2017-12-27T12:47:18.062Z,83.01
2017-12-27T12:48:32.222Z,82.54
2017-12-27T12:49:34.079Z,82.73
2017-12-27T12:50:35.936Z,82.92
2017-12-27T12:51:37.811Z,82.88
2017-12-27T12:52:39.634Z,83.45
2017-12-27T12:53:41.444Z,83.73
2017-12-27T12:54:43.335Z,83.78
2017-12-27T12:55:45.224Z,83.73
2017-12-27T12:56:47.137Z,83.68
2017-12-27T12:58:01.287Z,83.97
2017-12-27T12:59:03.159Z,83.78
2017-12-27T13:00:05.043Z,82.92
2017-12-27T13:01:06.898Z,82.92
2017-12-27T13:02:08.734Z,83.11
2017-12-27T13:03:10.548Z,82.92
2017-12-27T13:04:12.442Z,83.11
2017-12-27T13:05:14.316Z,83.01
2017-12-27T13:06:16.182Z,83.20
2017-12-27T13:07:30.340Z,83.11
2017-12-27T13:08:32.235Z,83.36
2017-12-27T13:09:34.108Z,83.26
2017-12-27T13:10:35.997Z,83.73
2017-12-27T13:11:37.805Z,83.54
2017-12-27T13:12:39.610Z,83.92
2017-12-27T13:13:41.492Z,83.73
2017-12-27T13:14:43.358Z,84.21
2017-12-27T13:15:45.252Z,84.30
2017-12-27T13:16:59.390Z,83.64
2017-12-27T13:18:01.260Z,83.73
2017-12-27T13:19:03.138Z,83.68
2017-12-27T13:20:05.028Z,83.59
2017-12-27T13:21:06.830Z,82.82
2017-12-27T13:22:08.648Z,82.64
2017-12-27T13:23:10.514Z,82.73
2017-12-27T13:24:12.387Z,82.82
2017-12-27T13:25:14.275Z,83.01
2017-12-27T13:26:28.429Z,83.68
2017-12-27T13:27:30.323Z,83.83
2017-12-27T13:28:32.205Z,83.78
2017-12-27T13:29:34.077Z,83.30
2017-12-27T13:30:35.900Z,83.49
2017-12-27T13:31:37.721Z,83.30
2017-12-27T13:32:39.584Z,83.11
2017-12-27T13:33:41.454Z,83.01